Observation data for Brownfield on 12/11/2018      Previous  Date       Current Mesonet Observations  Soil Data  Daily Summary Page  Observations in Plain Language
KBWS 110600Z 22007KT 01/00 A3028 RMK A01 T00080000  RH  096%=      5-min Rain = 0
KBWS 110605Z 22006KT 01/M00 A3028 RMK A01 T00061002  RH  095%=      5-min Rain = 0
KBWS 110610Z 21005KT 00/M01 A3028 RMK A01 T00031005  RH  096%=      5-min Rain = 0
KBWS 110615Z 22005KT 00/M01 A3028 RMK A01 T00021005  RH  096%=      5-min Rain = 0
KBWS 110620Z 22005KT 00/M01 A3028 RMK A01 T00011006  RH  097%=      5-min Rain = 0
KBWS 110625Z 23006KT 00/M01 A3027 RMK A01 T00011005  RH  097%=      5-min Rain = 0
KBWS 110630Z 22006KT 00/M01 A3027 RMK A01 T00011005  RH  097%=      5-min Rain = 0
KBWS 110635Z 21005KT M00/M01 A3027 RMK A01 T10011007  RH  097%=      5-min Rain = 0
KBWS 110640Z 21005KT M00/M01 A3027 RMK A01 T10021008  RH  097%=      5-min Rain = 0
KBWS 110645Z 21006KT M00/M01 A3027 RMK A01 T10021008  RH  097%=      5-min Rain = 0
KBWS 110650Z 21005KT M00/M01 A3027 RMK A01 T10031008  RH  097%=      5-min Rain = 0
KBWS 110655Z 22005KT M00/M01 A3027 RMK A01 T10031008  RH  098%=      5-min Rain = 0
KBWS 110700Z 21006KT M00/M01 A3027 RMK A01 T10021007  RH  098%=      5-min Rain = 0
KBWS 110705Z 22006KT M00/M01 A3027 RMK A01 T10021007  RH  098%=      5-min Rain = 0
KBWS 110710Z 23005KT M00/M01 A3026 RMK A01 T10021007  RH  098%=      5-min Rain = 0
KBWS 110715Z 23006KT M00/M01 A3026 RMK A01 T10011006  RH  098%=      5-min Rain = 0
KBWS 110720Z 22006KT 00/01 A3027 RMK A01 T00-000-5  RH  098%=      5-min Rain = 0
KBWS 110725Z 22006KT M00/M01 A3027 RMK A01 T10011006  RH  098%=      5-min Rain = 0
KBWS 110730Z 22006KT M00/M01 A3027 RMK A01 T10011006  RH  098%=      5-min Rain = 0
KBWS 110735Z 22007KT M00/M01 A3026 RMK A01 T10021006  RH  098%=      5-min Rain = 0
KBWS 110740Z 22006KT M00/M01 A3026 RMK A01 T10021007  RH  098%=      5-min Rain = 0
KBWS 110745Z 23007KT M00/M01 A3026 RMK A01 T10031007  RH  098%=      5-min Rain = 0
KBWS 110750Z 23007KT M00/M01 A3026 RMK A01 T10031008  RH  098%=      5-min Rain = 0
KBWS 110755Z 23006KT M00/M01 A3026 RMK A01 T10041009  RH  098%=      5-min Rain = 0
KBWS 110800Z 23006KT M01/M01 A3026 RMK A01 T10051009  RH  098%=      5-min Rain = 0
KBWS 110805Z 23006KT M00/M01 A3026 RMK A01 T10041009  RH  098%=      5-min Rain = 0
KBWS 110810Z 23007KT M00/M01 A3026 RMK A01 T10021006  RH  098%=      5-min Rain = 0
KBWS 110815Z 23007KT 00/01 A3026 RMK A01 T00-000-6  RH  097%=      5-min Rain = 0
KBWS 110820Z 23007KT M00/M01 A3026 RMK A01 T10011008  RH  096%=      5-min Rain = 0
KBWS 110825Z 23006KT M00/M01 A3026 RMK A01 T10021010  RH  096%=      5-min Rain = 0
KBWS 110830Z 23006KT M00/M01 A3026 RMK A01 T10031010  RH  096%=      5-min Rain = 0
KBWS 110835Z 23006KT M00/M01 A3026 RMK A01 T10031010  RH  096%=      5-min Rain = 0
KBWS 110840Z 23006KT M00/M01 A3026 RMK A01 T10031011  RH  096%=      5-min Rain = 0
KBWS 110845Z 24007KT M00/M01 A3026 RMK A01 T10041011  RH  096%=      5-min Rain = 0
KBWS 110850Z 24007KT M01/M01 A3026 RMK A01 T10051012  RH  096%=      5-min Rain = 0
KBWS 110855Z 24006KT M01/M01 A3026 RMK A01 T10051013  RH  096%=      5-min Rain = 0
KBWS 110900Z 24007KT M00/M01 A3025 RMK A01 T10031010  RH  096%=      5-min Rain = 0
KBWS 110905Z 24007KT 00/01 A3025 RMK A01 T00-000-8  RH  095%=      5-min Rain = 0
KBWS 110910Z 24007KT M00/M01 A3025 RMK A01 T10011011  RH  095%=      5-min Rain = 0
KBWS 110915Z 25006KT M00/M01 A3025 RMK A01 T10031012  RH  094%=      5-min Rain = 0
KBWS 110920Z 25006KT M00/M01 A3025 RMK A01 T10041012  RH  095%=      5-min Rain = 0
KBWS 110925Z 25005KT M01/M01 A3025 RMK A01 T10051014  RH  095%=      5-min Rain = 0
KBWS 110930Z 25006KT M01/M01 A3025 RMK A01 T10051014  RH  095%=      5-min Rain = 0
KBWS 110935Z 24006KT M00/M01 A3025 RMK A01 T10041012  RH  095%=      5-min Rain = 0
KBWS 110940Z 24006KT M00/M01 A3024 RMK A01 T10021010  RH  096%=      5-min Rain = 0
KBWS 110945Z 24007KT 00/01 A3024 RMK A01 T00-000-9  RH  095%=      5-min Rain = 0
KBWS 110950Z 24007KT 00/M01 A3024 RMK A01 T00021006  RH  095%=      5-min Rain = 0
KBWS 110955Z 23008KT 00/M00 A3024 RMK A01 T00041004  RH  095%=      5-min Rain = 0
KBWS 111000Z 23009KT 01/M00 A3024 RMK A01 T00071002  RH  095%=      5-min Rain = 0
KBWS 111005Z 23009KT 01/00 A3024 RMK A01 T001000-0  RH  094%=      5-min Rain = 0
KBWS 111010Z 23007KT 01/M00 A3024 RMK A01 T00101001  RH  093%=      5-min Rain = 0
KBWS 111015Z 23007KT 01/M00 A3024 RMK A01 T00091002  RH  093%=      5-min Rain = 0
KBWS 111020Z 23007KT 01/M00 A3023 RMK A01 T00071004  RH  093%=      5-min Rain = 0
KBWS 111025Z 23007KT 00/M01 A3023 RMK A01 T00041006  RH  094%=      5-min Rain = 0
KBWS 111030Z 23007KT 00/M01 A3023 RMK A01 T00021007  RH  095%=      5-min Rain = 0
KBWS 111035Z 23006KT 00/M01 A3023 RMK A01 T00021006  RH  095%=      5-min Rain = 0
KBWS 111040Z 23006KT 00/M01 A3022 RMK A01 T00021006  RH  095%=      5-min Rain = 0
KBWS 111045Z 23006KT 00/M01 A3022 RMK A01 T00031006  RH  095%=      5-min Rain = 0
KBWS 111050Z 23006KT 00/M01 A3022 RMK A01 T00031006  RH  095%=      5-min Rain = 0
KBWS 111055Z 23006KT 00/M01 A3021 RMK A01 T00031005  RH  095%=      5-min Rain = 0
KBWS 111100Z 23006KT 00/M01 A3021 RMK A01 T00031006  RH  095%=      5-min Rain = 0
KBWS 111105Z 23006KT 00/M01 A3021 RMK A01 T00021007  RH  095%=      5-min Rain = 0
KBWS 111110Z 23006KT 00/01 A3021 RMK A01 T00-000-9  RH  095%=      5-min Rain = 0
KBWS 111115Z 23006KT M00/M01 A3021 RMK A01 T10011008  RH  096%=      5-min Rain = 0
KBWS 111120Z 23006KT 00/M01 A3021 RMK A01 T00011005  RH  096%=      5-min Rain = 0
KBWS 111125Z 24006KT 00/M01 A3021 RMK A01 T00021006  RH  096%=      5-min Rain = 0
KBWS 111130Z 24007KT 00/01 A3021 RMK A01 T00-000-8  RH  095%=      5-min Rain = 0
KBWS 111135Z 24006KT 00/01 A302 RMK A01 T00-000-8  RH  096%=      5-min Rain = 0
KBWS 111140Z 23006KT 00/M01 A3021 RMK A01 T00021005  RH  096%=      5-min Rain = 0
KBWS 111145Z 22006KT 00/M01 A3021 RMK A01 T00031006  RH  095%=      5-min Rain = 0
KBWS 111150Z 22006KT M00/M01 A3021 RMK A01 T10011009  RH  095%=      5-min Rain = 0
KBWS 111155Z 22006KT 00/01 A3021 RMK A01 T000000-7  RH  096%=      5-min Rain = 0
KBWS 111200Z 22007KT 00/M00 A302 RMK A01 T00021004  RH  096%=      5-min Rain = 0
KBWS 111205Z 23007KT 00/M00 A302 RMK A01 T00041003  RH  096%=      5-min Rain = 0
KBWS 111210Z 23007KT 01/M00 A302 RMK A01 T00051003  RH  096%=      5-min Rain = 0
KBWS 111215Z 22008KT 01/M00 A302 RMK A01 T00061002  RH  095%=      5-min Rain = 0
KBWS 111220Z 22008KT 01/M00 A302 RMK A01 T00081001  RH  095%=      5-min Rain = 0
KBWS 111225Z 22007KT 01/M00 A302 RMK A01 T00081002  RH  094%=      5-min Rain = 0
KBWS 111230Z 22007KT 01/M00 A3021 RMK A01 T00071002  RH  095%=      5-min Rain = 0
KBWS 111235Z 22007KT 01/M00 A3021 RMK A01 T00071002  RH  095%=      5-min Rain = 0
KBWS 111240Z 22006KT 01/M00 A302 RMK A01 T00071002  RH  095%=      5-min Rain = 0
KBWS 111245Z 22006KT 01/M00 A302 RMK A01 T00061003  RH  095%=      5-min Rain = 0
KBWS 111250Z 22006KT 01/M00 A302 RMK A01 T00061002  RH  095%=      5-min Rain = 0
KBWS 111255Z 22006KT 01/M00 A302 RMK A01 T00061003  RH  095%=      5-min Rain = 0
KBWS 111300Z 21006KT 01/M00 A302 RMK A01 T00061002  RH  096%=      5-min Rain = 0
KBWS 111305Z 22006KT 01/M00 A302 RMK A01 T00061002  RH  096%=      5-min Rain = 0
KBWS 111310Z 21005KT 01/M00 A302 RMK A01 T00071002  RH  095%=      5-min Rain = 0
KBWS 111315Z 21006KT 01/M00 A302 RMK A01 T00061001  RH  096%=      5-min Rain = 0
KBWS 111320Z 21006KT 01/M00 A302 RMK A01 T00061001  RH  096%=      5-min Rain = 0
KBWS 111325Z 21006KT 01/M00 A302 RMK A01 T00061001  RH  096%=      5-min Rain = 0
KBWS 111330Z 22006KT 01/00 A302 RMK A01 T000700-0  RH  096%=      5-min Rain = 0
KBWS 111335Z 22007KT 01/00 A3019 RMK A01 T00080000  RH  096%=      5-min Rain = 0
KBWS 111340Z 22007KT 01/00 A3019 RMK A01 T00090001  RH  095%=      5-min Rain = 0
KBWS 111345Z 21007KT 01/00 A3019 RMK A01 T00090001  RH  095%=      5-min Rain = 0
KBWS 111350Z 21007KT 01/00 A302 RMK A01 T00100002  RH  096%=      5-min Rain = 0
KBWS 111355Z 21008KT 01/00 A302 RMK A01 T00110003  RH  095%=      5-min Rain = 0
KBWS 111400Z 21008KT 01/00 A302 RMK A01 T00110003  RH  095%=      5-min Rain = 0
KBWS 111405Z 22008KT 01/00 A302 RMK A01 T00120004  RH  095%=      5-min Rain = 0
KBWS 111410Z 22009KT 01/01 A302 RMK A01 T00140005  RH  095%=      5-min Rain = 0
KBWS 111415Z 22009KT 01/00 A302 RMK A01 T00140004  RH  094%=      5-min Rain = 0
KBWS 111420Z 22009KT 01/00 A302 RMK A01 T00140004  RH  094%=      5-min Rain = 0
KBWS 111425Z 22008KT 01/01 A302 RMK A01 T00140005  RH  094%=      5-min Rain = 0
KBWS 111430Z 22008KT 01/00 A302 RMK A01 T00140004  RH  094%=      5-min Rain = 0
KBWS 111435Z 22008KT 01/01 A302 RMK A01 T00140005  RH  095%=      5-min Rain = 0
KBWS 111440Z 22008KT 02/01 A302 RMK A01 T00150006  RH  095%=      5-min Rain = 0
KBWS 111445Z 22008KT 02/01 A302 RMK A01 T00150006  RH  095%=      5-min Rain = 0
KBWS 111450Z 21008KT 02/01 A302 RMK A01 T00170007  RH  095%=      5-min Rain = 0
KBWS 111455Z 21008KT 02/01 A302 RMK A01 T00180009  RH  094%=      5-min Rain = 0
KBWS 111500Z 22009KT 02/01 A302 RMK A01 T00190009  RH  094%=      5-min Rain = 0
KBWS 111505Z 21009KT 02/01 A302 RMK A01 T00200010  RH  094%=      5-min Rain = 0
KBWS 111510Z 21009KT 02/01 A3019 RMK A01 T00210011  RH  094%=      5-min Rain = 0
KBWS 111515Z 21009KT 02/01 A3019 RMK A01 T00230012  RH  094%=      5-min Rain = 0
KBWS 111520Z 21009KT 03/01 A3019 RMK A01 T00250014  RH  094%=      5-min Rain = 0
KBWS 111525Z 21010KT 03/01 A3019 RMK A01 T00260014  RH  093%=      5-min Rain = 0
KBWS 111530Z 21009KT 03/02 A3019 RMK A01 T00270016  RH  093%=      5-min Rain = 0
KBWS 111535Z 21010KT 03/02 A3019 RMK A01 T00300018  RH  093%=      5-min Rain = 0
KBWS 111540Z 21011KT 03/02 A3019 RMK A01 T00320019  RH  093%=      5-min Rain = 0
KBWS 111545Z 21011KT 03/02 A3019 RMK A01 T00340021  RH  092%=      5-min Rain = 0
KBWS 111550Z 21012KT 04/02 A3019 RMK A01 T00360022  RH  092%=      5-min Rain = 0
KBWS 111555Z 21013KT 04/02 A3019 RMK A01 T00380023  RH  091%=      5-min Rain = 0
KBWS 111600Z 21013KT 04/02 A3019 RMK A01 T00390024  RH  091%=      5-min Rain = 0
KBWS 111605Z 21012KT 04/03 A302 RMK A01 T00410026  RH  091%=      5-min Rain = 0
KBWS 111610Z 21011KT 04/03 A3019 RMK A01 T00430028  RH  091%=      5-min Rain = 0
KBWS 111615Z 21012KT 05/03 A3019 RMK A01 T00470030  RH  090%=      5-min Rain = 0
KBWS 111620Z 21012KT 05/03 A3019 RMK A01 T00500032  RH  089%=      5-min Rain = 0
KBWS 111625Z 21013KT 06/04 A3019 RMK A01 T00550036  RH  089%=      5-min Rain = 0
KBWS 111630Z 21013KT 06/04 A3018 RMK A01 T00600039  RH  088%=      5-min Rain = 0
KBWS 111635Z 21014KT 06/04 A3019 RMK A01 T00610040  RH  087%=      5-min Rain = 0
KBWS 111640Z 21013KT 07/04 A3019 RMK A01 T00650043  RH  087%=      5-min Rain = 0
KBWS 111645Z 21014KT 07/04 A3019 RMK A01 T00650042  RH  086%=      5-min Rain = 0
KBWS 111650Z 22015KT 07/04 A3018 RMK A01 T00690044  RH  085%=      5-min Rain = 0
KBWS 111655Z 22015KT 07/05 A3018 RMK A01 T00710045  RH  085%=      5-min Rain = 0
KBWS 111700Z 21015KT 07/05 A3018 RMK A01 T00720045  RH  084%=      5-min Rain = 0
KBWS 111705Z 21014KT 07/05 A3017 RMK A01 T00740047  RH  084%=      5-min Rain = 0
KBWS 111710Z 21015KT 08/05 A3018 RMK A01 T00770050  RH  084%=      5-min Rain = 0
KBWS 111715Z 21014KT 08/05 A3018 RMK A01 T00820053  RH  083%=      5-min Rain = 0
KBWS 111720Z 20014KT 09/06 A3017 RMK A01 T00850055  RH  083%=      5-min Rain = 0
KBWS 111725Z 21015G22KT 09/05 A3017 RMK A01 T00870054  RH  081%=      5-min Rain = 0
KBWS 111730Z 21016KT 09/06 A3017 RMK A01 T00900055  RH  080%=      5-min Rain = 0
KBWS 111735Z 21015KT 09/06 A3016 RMK A01 T00920055  RH  079%=      5-min Rain = 0
KBWS 111740Z 21014KT 09/06 A3016 RMK A01 T00940057  RH  079%=      5-min Rain = 0
KBWS 111745Z 21014KT 10/06 A3016 RMK A01 T00970058  RH  078%=      5-min Rain = 0
KBWS 111750Z 21015G20KT 10/06 A3016 RMK A01 T00990058  RH  077%=      5-min Rain = 0
KBWS 111755Z 21015KT 10/06 A3015 RMK A01 T01010059  RH  076%=      5-min Rain = 0
KBWS 111800Z 21015G20KT 10/06 A3015 RMK A01 T01040058  RH  074%=      5-min Rain = 0
KBWS 111805Z 21013KT 11/06 A3015 RMK A01 T01060061  RH  075%=      5-min Rain = 0
KBWS 111810Z 21016KT 11/06 A3015 RMK A01 T01090061  RH  073%=      5-min Rain = 0
KBWS 111815Z 21015KT 11/06 A3014 RMK A01 T01080060  RH  073%=      5-min Rain = 0
KBWS 111820Z 21016G21KT 11/06 A3014 RMK A01 T01110060  RH  072%=      5-min Rain = 0
KBWS 111825Z 21017G22KT 11/06 A3013 RMK A01 T01130059  RH  070%=      5-min Rain = 0
KBWS 111830Z 21017G22KT 11/06 A3013 RMK A01 T01140059  RH  070%=      5-min Rain = 0
KBWS 111835Z 20017KT 12/06 A3013 RMK A01 T01150061  RH  070%=      5-min Rain = 0
KBWS 111840Z 21018G24KT 11/06 A3013 RMK A01 T01130058  RH  070%=      5-min Rain = 0
KBWS 111845Z 21016G21KT 11/06 A3012 RMK A01 T01110058  RH  070%=      5-min Rain = 0
KBWS 111850Z 21014G19KT 11/06 A3012 RMK A01 T01130061  RH  072%=      5-min Rain = 0
KBWS 111855Z 21015KT 12/06 A3011 RMK A01 T01150060  RH  070%=      5-min Rain = 0
KBWS 111900Z 20014KT 12/06 A3011 RMK A01 T01200063  RH  069%=      5-min Rain = 0
KBWS 111905Z 21015KT 12/06 A301 RMK A01 T01230062  RH  067%=      5-min Rain = 0
KBWS 111910Z 21014G19KT 12/06 A301 RMK A01 T01240061  RH  067%=      5-min Rain = 0
KBWS 111915Z 21016KT 12/06 A301 RMK A01 T01230061  RH  067%=      5-min Rain = 0
KBWS 111920Z 21015KT 12/06 A3009 RMK A01 T01220060  RH  066%=      5-min Rain = 0
KBWS 111925Z 21015KT 12/06 A3009 RMK A01 T01220058  RH  066%=      5-min Rain = 0
KBWS 111930Z 21015KT 12/06 A3008 RMK A01 T01220059  RH  066%=      5-min Rain = 0
KBWS 111935Z 21014KT 13/06 A3008 RMK A01 T01250059  RH  065%=      5-min Rain = 0
KBWS 111940Z 21014KT 13/06 A3008 RMK A01 T01260059  RH  065%=      5-min Rain = 0
KBWS 111945Z 22013KT 13/06 A3008 RMK A01 T01280061  RH  064%=      5-min Rain = 0
KBWS 111950Z 21015KT 13/06 A3008 RMK A01 T01300060  RH  064%=      5-min Rain = 0
KBWS 111955Z 21014KT 13/06 A3008 RMK A01 T01260059  RH  064%=      5-min Rain = 0
KBWS 112000Z 21016KT 13/06 A3007 RMK A01 T01250056  RH  064%=      5-min Rain = 0
KBWS 112005Z 21014KT 13/06 A3007 RMK A01 T01280059  RH  064%=      5-min Rain = 0
KBWS 112010Z 21014KT 13/06 A3007 RMK A01 T01260058  RH  064%=      5-min Rain = 0
KBWS 112015Z 21012KT 12/06 A3006 RMK A01 T01230058  RH  066%=      5-min Rain = 0
KBWS 112020Z 22013KT 13/06 A3006 RMK A01 T01250058  RH  064%=      5-min Rain = 0
KBWS 112025Z 22014KT 13/06 A3006 RMK A01 T01250056  RH  064%=      5-min Rain = 0
KBWS 112030Z 21013KT 13/06 A3006 RMK A01 T01260058  RH  064%=      5-min Rain = 0
KBWS 112035Z 21012KT 13/06 A3006 RMK A01 T01270059  RH  064%=      5-min Rain = 0
KBWS 112040Z 21012KT 13/06 A3006 RMK A01 T01270058  RH  064%=      5-min Rain = 0
KBWS 112045Z 22012KT 13/06 A3005 RMK A01 T01310058  RH  062%=      5-min Rain = 0
KBWS 112050Z 21012KT 13/06 A3005 RMK A01 T01330059  RH  061%=      5-min Rain = 0
KBWS 112055Z 21012KT 13/06 A3005 RMK A01 T01320057  RH  061%=      5-min Rain = 0
KBWS 112100Z 20012KT 13/06 A3004 RMK A01 T01290057  RH  063%=      5-min Rain = 0
KBWS 112105Z 21012KT 13/06 A3005 RMK A01 T01260057  RH  064%=      5-min Rain = 0
KBWS 112110Z 20012KT 13/06 A3005 RMK A01 T01260056  RH  063%=      5-min Rain = 0
KBWS 112115Z 21011KT 13/06 A3005 RMK A01 T01270056  RH  063%=      5-min Rain = 0
KBWS 112120Z 20011KT 13/06 A3004 RMK A01 T01280058  RH  063%=      5-min Rain = 0
KBWS 112125Z 20012KT 13/06 A3004 RMK A01 T01280057  RH  063%=      5-min Rain = 0
KBWS 112130Z 20011KT 13/06 A3003 RMK A01 T01290058  RH  063%=      5-min Rain = 0
KBWS 112135Z 21012KT 13/06 A3003 RMK A01 T01280055  RH  062%=      5-min Rain = 0
KBWS 112140Z 21010KT 13/06 A3003 RMK A01 T01280057  RH  063%=      5-min Rain = 0
KBWS 112145Z 21012KT 13/06 A3004 RMK A01 T01300058  RH  063%=      5-min Rain = 0
KBWS 112150Z 21012KT 13/06 A3004 RMK A01 T01290057  RH  062%=      5-min Rain = 0
KBWS 112155Z 21012KT 13/06 A3003 RMK A01 T01280056  RH  063%=      5-min Rain = 0
KBWS 112200Z 21009KT 13/06 A3003 RMK A01 T01260059  RH  065%=      5-min Rain = 0
KBWS 112205Z 21009KT 13/06 A3003 RMK A01 T01250060  RH  065%=      5-min Rain = 0
KBWS 112210Z 21010KT 12/06 A3003 RMK A01 T01240059  RH  065%=      5-min Rain = 0
KBWS 112215Z 21008KT 12/06 A3003 RMK A01 T01240061  RH  066%=      5-min Rain = 0
KBWS 112220Z 21009KT 12/06 A3002 RMK A01 T01230062  RH  067%=      5-min Rain = 0
KBWS 112225Z 22008KT 12/06 A3002 RMK A01 T01220062  RH  068%=      5-min Rain = 0
KBWS 112230Z 22007KT 12/06 A3002 RMK A01 T01210063  RH  068%=      5-min Rain = 0
KBWS 112235Z 22006KT 12/06 A3002 RMK A01 T01200063  RH  069%=      5-min Rain = 0
KBWS 112240Z 22007KT 12/06 A3003 RMK A01 T01210061  RH  068%=      5-min Rain = 0
KBWS 112245Z 23006KT 12/06 A3003 RMK A01 T01200061  RH  068%=      5-min Rain = 0
KBWS 112250Z 23006KT 12/06 A3003 RMK A01 T01200061  RH  068%=      5-min Rain = 0
KBWS 112255Z 22006KT 12/06 A3002 RMK A01 T01180062  RH  070%=      5-min Rain = 0
KBWS 112300Z 22006KT 12/06 A3003 RMK A01 T01170063  RH  070%=      5-min Rain = 0
KBWS 112305Z 21007KT 11/06 A3003 RMK A01 T01140064  RH  072%=      5-min Rain = 0
KBWS 112310Z 21007KT 11/07 A3002 RMK A01 T01110065  RH  074%=      5-min Rain = 0
KBWS 112315Z 21009KT 11/06 A3003 RMK A01 T01130062  RH  072%=      5-min Rain = 0
KBWS 112320Z 22009KT 11/06 A3003 RMK A01 T01140061  RH  071%=      5-min Rain = 0
KBWS 112325Z 21009KT 11/06 A3002 RMK A01 T01140059  RH  070%=      5-min Rain = 0
KBWS 112330Z 22010KT 11/06 A3002 RMK A01 T01130057  RH  070%=      5-min Rain = 0
KBWS 112335Z 22010KT 11/06 A3003 RMK A01 T01140055  RH  068%=      5-min Rain = 0
KBWS 112340Z 22010KT 11/06 A3003 RMK A01 T01130055  RH  068%=      5-min Rain = 0
KBWS 112345Z 23010KT 11/05 A3003 RMK A01 T01120054  RH  069%=      5-min Rain = 0
KBWS 112350Z 22010KT 11/06 A3003 RMK A01 T01100055  RH  069%=      5-min Rain = 0
KBWS 112355Z 22009KT 11/06 A3003 RMK A01 T01090055  RH  070%=      5-min Rain = 0
KBWS 120000Z 22009KT 11/05 A3003 RMK A01 T01080054  RH  071%=      5-min Rain = 0
KBWS 120005Z 22010KT 11/06 A3003 RMK A01 T01060055  RH  071%=      5-min Rain = 0
KBWS 120010Z 22010KT 11/06 A3003 RMK A01 T01050055  RH  072%=      5-min Rain = 0
KBWS 120015Z 22010KT 10/06 A3003 RMK A01 T01030055  RH  073%=      5-min Rain = 0
KBWS 120020Z 22009KT 10/06 A3004 RMK A01 T01020055  RH  074%=      5-min Rain = 0
KBWS 120025Z 22010KT 10/06 A3003 RMK A01 T01000055  RH  074%=      5-min Rain = 0
KBWS 120030Z 22009KT 10/06 A3003 RMK A01 T00980055  RH  076%=      5-min Rain = 0
KBWS 120035Z 22008KT 10/06 A3003 RMK A01 T00960055  RH  077%=      5-min Rain = 0
KBWS 120040Z 22008KT 10/06 A3002 RMK A01 T00960056  RH  077%=      5-min Rain = 0
KBWS 120045Z 22008KT 10/06 A3003 RMK A01 T00950055  RH  077%=      5-min Rain = 0
KBWS 120050Z 23008KT 09/06 A3003 RMK A01 T00940055  RH  077%=      5-min Rain = 0
KBWS 120055Z 23007KT 09/06 A3003 RMK A01 T00930055  RH  078%=      5-min Rain = 0
KBWS 120100Z 23007KT 09/05 A3003 RMK A01 T00920054  RH  078%=      5-min Rain = 0
KBWS 120105Z 23008KT 09/05 A3003 RMK A01 T00910054  RH  079%=      5-min Rain = 0
KBWS 120110Z 22008KT 09/05 A3003 RMK A01 T00890054  RH  080%=      5-min Rain = 0
KBWS 120115Z 22008KT 09/05 A3003 RMK A01 T00880054  RH  080%=      5-min Rain = 0
KBWS 120120Z 22008KT 09/05 A3003 RMK A01 T00860054  RH  081%=      5-min Rain = 0
KBWS 120125Z 22008KT 09/05 A3003 RMK A01 T00870054  RH  081%=      5-min Rain = 0
KBWS 120130Z 22008KT 09/05 A3003 RMK A01 T00870054  RH  081%=      5-min Rain = 0
KBWS 120135Z 22008KT 09/05 A3003 RMK A01 T00860054  RH  081%=      5-min Rain = 0
KBWS 120140Z 22008KT 09/05 A3002 RMK A01 T00850054  RH  082%=      5-min Rain = 0
KBWS 120145Z 22009KT 09/05 A3003 RMK A01 T00850054  RH  082%=      5-min Rain = 0
KBWS 120150Z 22009KT 09/05 A3003 RMK A01 T00850054  RH  082%=      5-min Rain = 0
KBWS 120155Z 22009KT 08/05 A3003 RMK A01 T00830054  RH  083%=      5-min Rain = 0
KBWS 120200Z 22009KT 08/05 A3003 RMK A01 T00810054  RH  084%=      5-min Rain = 0
KBWS 120205Z 22009KT 08/05 A3003 RMK A01 T00810054  RH  084%=      5-min Rain = 0
KBWS 120210Z 22009KT 08/05 A3003 RMK A01 T00820054  RH  084%=      5-min Rain = 0
KBWS 120215Z 21008KT 08/05 A3003 RMK A01 T00810053  RH  084%=      5-min Rain = 0
KBWS 120220Z 21007KT 08/05 A3003 RMK A01 T00780052  RH  085%=      5-min Rain = 0
KBWS 120225Z 21008KT 08/05 A3003 RMK A01 T00770052  RH  085%=      5-min Rain = 0
KBWS 120230Z 20007KT 07/05 A3003 RMK A01 T00740051  RH  086%=      5-min Rain = 0
KBWS 120235Z 20007KT 07/05 A3003 RMK A01 T00700050  RH  088%=      5-min Rain = 0
KBWS 120240Z 20008KT 07/05 A3003 RMK A01 T00700050  RH  088%=      5-min Rain = 0
KBWS 120245Z 20008KT 07/05 A3003 RMK A01 T00720050  RH  087%=      5-min Rain = 0
KBWS 120250Z 20007KT 07/05 A3003 RMK A01 T00720049  RH  087%=      5-min Rain = 0
KBWS 120255Z 20007KT 07/05 A3002 RMK A01 T00680048  RH  088%=      5-min Rain = 0
KBWS 120300Z 21007KT 07/05 A3002 RMK A01 T00670047  RH  088%=      5-min Rain = 0
KBWS 120305Z 21007KT 07/05 A3002 RMK A01 T00660047  RH  089%=      5-min Rain = 0
KBWS 120310Z 21007KT 06/05 A3002 RMK A01 T00630045  RH  089%=      5-min Rain = 0
KBWS 120315Z 22007KT 06/05 A3002 RMK A01 T00640046  RH  090%=      5-min Rain = 0
KBWS 120320Z 21008KT 06/05 A3002 RMK A01 T00640046  RH  090%=      5-min Rain = 0
KBWS 120325Z 21009KT 07/05 A3002 RMK A01 T00650047  RH  089%=      5-min Rain = 0
KBWS 120330Z 22010KT 07/05 A3002 RMK A01 T00670048  RH  089%=      5-min Rain = 0
KBWS 120335Z 22010KT 07/05 A3002 RMK A01 T00660048  RH  089%=      5-min Rain = 0
KBWS 120340Z 21010KT 07/05 A3002 RMK A01 T00670049  RH  089%=      5-min Rain = 0
KBWS 120345Z 21010KT 07/05 A3002 RMK A01 T00670049  RH  089%=      5-min Rain = 0
KBWS 120350Z 22011KT 07/05 A3002 RMK A01 T00680049  RH  089%=      5-min Rain = 0
KBWS 120355Z 22011KT 07/05 A3002 RMK A01 T00670048  RH  089%=      5-min Rain = 0
KBWS 120400Z 22011KT 06/05 A3001 RMK A01 T00640047  RH  090%=      5-min Rain = 0
KBWS 120405Z 22010KT 06/05 A3001 RMK A01 T00630047  RH  091%=      5-min Rain = 0
KBWS 120410Z 22011KT 06/05 A3001 RMK A01 T00630047  RH  091%=      5-min Rain = 0
KBWS 120415Z 22011KT 06/05 A3002 RMK A01 T00620047  RH  091%=      5-min Rain = 0
KBWS 120420Z 22010KT 06/05 A3001 RMK A01 T00620046  RH  091%=      5-min Rain = 0
KBWS 120425Z 23010KT 06/05 A3001 RMK A01 T00610046  RH  091%=      5-min Rain = 0
KBWS 120430Z 22010KT 06/05 A3002 RMK A01 T00600046  RH  091%=      5-min Rain = 0
KBWS 120435Z 22010KT 06/05 A3001 RMK A01 T00600045  RH  092%=      5-min Rain = 0
KBWS 120440Z 23009KT 06/04 A3001 RMK A01 T00590044  RH  092%=      5-min Rain = 0
KBWS 120445Z 22008KT 06/04 A3001 RMK A01 T00570044  RH  092%=      5-min Rain = 0
KBWS 120450Z 22009KT 06/04 A3001 RMK A01 T00570044  RH  092%=      5-min Rain = 0
KBWS 120455Z 22008KT 06/04 A3001 RMK A01 T00550042  RH  093%=      5-min Rain = 0
KBWS 120500Z 22010KT 06/04 A3001 RMK A01 T00550043  RH  093%=      5-min Rain = 0
KBWS 120505Z 23009KT 06/04 A3001 RMK A01 T00550042  RH  092%=      5-min Rain = 0
KBWS 120510Z 23008KT 06/04 A3001 RMK A01 T00550042  RH  092%=      5-min Rain = 0
KBWS 120515Z 23009KT 06/04 A3002 RMK A01 T00550042  RH  092%=      5-min Rain = 0
KBWS 120520Z 23008KT 06/04 A3001 RMK A01 T00560042  RH  092%=      5-min Rain = 0
KBWS 120525Z 23008KT 06/04 A3001 RMK A01 T00570043  RH  092%=      5-min Rain = 0
KBWS 120530Z 23009KT 06/04 A3001 RMK A01 T00570043  RH  091%=      5-min Rain = 0
KBWS 120535Z 24008KT 06/04 A3001 RMK A01 T00570042  RH  092%=      5-min Rain = 0
KBWS 120540Z 24008KT 06/04 A3001 RMK A01 T00560041  RH  092%=      5-min Rain = 0
KBWS 120545Z 23007KT 05/04 A3001 RMK A01 T00540040  RH  092%=      5-min Rain = 0
KBWS 120550Z 24007KT 05/04 A3001 RMK A01 T00540041  RH  092%=      5-min Rain = 0
KBWS 120555Z 25006KT 05/04 A3002 RMK A01 T00520039  RH  092%=      5-min Rain = 0

Page generated in 0.0089 seconds.